createdAt,value
2023-03-25T00:01:19.590Z,11.63
2023-03-25T00:03:50.516Z,11.62
2023-03-25T00:06:19.599Z,11.61
2023-03-25T00:08:47.906Z,11.62
2023-03-25T00:11:16.496Z,11.63
2023-03-25T00:13:44.700Z,11.62
2023-03-25T00:16:12.974Z,11.63
2023-03-25T00:18:41.530Z,11.63
2023-03-25T00:21:12.421Z,11.63
2023-03-25T00:23:41.459Z,11.65
2023-03-25T00:26:10.283Z,11.66
2023-03-25T00:28:39.147Z,11.66
2023-03-25T00:31:12.543Z,11.67
2023-03-25T00:33:44.056Z,11.65
2023-03-25T00:36:18.010Z,11.62
2023-03-25T00:38:50.036Z,11.61
2023-03-25T00:41:26.082Z,11.59
2023-03-25T00:44:00.137Z,11.55
2023-03-25T00:46:31.942Z,11.53
2023-03-25T00:49:00.688Z,11.52
2023-03-25T00:51:31.242Z,11.51
2023-03-25T00:54:00.563Z,11.51
2023-03-25T00:56:30.691Z,11.51
2023-03-25T00:58:58.996Z,11.52
2023-03-25T01:01:29.299Z,11.52
2023-03-25T01:04:00.199Z,11.52
2023-03-25T01:06:34.852Z,11.53
2023-03-25T01:09:07.699Z,11.53
2023-03-25T01:11:38.393Z,11.51
2023-03-25T01:14:12.776Z,11.50
2023-03-25T01:16:41.222Z,11.48
2023-03-25T01:19:11.440Z,11.48
2023-03-25T01:21:39.859Z,11.49
2023-03-25T01:24:13.342Z,11.48
2023-03-25T01:26:43.700Z,11.46
2023-03-25T01:29:20.070Z,11.45
2023-03-25T01:31:48.910Z,11.46
2023-03-25T01:34:17.359Z,11.45
2023-03-25T01:36:49.176Z,11.44
2023-03-25T01:39:19.310Z,11.43
2023-03-25T01:41:50.936Z,11.42
2023-03-25T01:44:19.559Z,11.40
2023-03-25T01:46:53.728Z,11.37
2023-03-25T01:49:33.361Z,11.34
2023-03-25T01:52:25.513Z,11.32
2023-03-25T01:54:56.419Z,11.30
2023-03-25T01:57:25.932Z,11.29
2023-03-25T01:59:55.727Z,11.28
2023-03-25T02:02:36.621Z,11.26
2023-03-25T02:05:17.988Z,11.27
2023-03-25T02:07:49.895Z,11.25
2023-03-25T02:10:19.606Z,11.21
2023-03-25T02:12:48.114Z,11.17
2023-03-25T02:15:19.061Z,11.13
2023-03-25T02:18:29.402Z,11.11
2023-03-25T02:21:28.343Z,11.08
2023-03-25T02:24:30.266Z,11.05
2023-03-25T02:27:41.978Z,11.01
2023-03-25T02:30:35.335Z,10.98
2023-03-25T02:33:23.429Z,10.97
2023-03-25T02:36:49.403Z,10.99
2023-03-25T02:39:35.986Z,10.99
2023-03-25T02:42:34.316Z,10.99
2023-03-25T02:45:11.835Z,10.97
2023-03-25T02:47:50.918Z,10.93
2023-03-25T02:50:33.711Z,10.89
2023-03-25T02:53:10.982Z,10.86
2023-03-25T02:55:42.362Z,10.84
2023-03-25T02:58:18.051Z,10.85
2023-03-25T03:00:46.627Z,10.84
2023-03-25T03:03:15.117Z,10.83
2023-03-25T03:05:48.971Z,10.84
2023-03-25T03:08:43.498Z,10.83
2023-03-25T03:11:33.561Z,10.81
2023-03-25T03:14:42.707Z,10.79
2023-03-25T03:17:52.657Z,10.78
2023-03-25T03:20:51.435Z,10.76
2023-03-25T03:23:37.078Z,10.74
2023-03-25T03:26:11.433Z,10.71
2023-03-25T03:28:54.313Z,10.68
2023-03-25T03:31:50.764Z,10.66
2023-03-25T03:34:49.364Z,10.63
2023-03-25T03:37:26.380Z,10.62
2023-03-25T03:39:57.947Z,10.58
2023-03-25T03:42:37.828Z,10.56
2023-03-25T03:45:17.250Z,10.54
2023-03-25T03:47:51.877Z,10.49
2023-03-25T03:50:28.743Z,10.47
2023-03-25T03:53:06.343Z,10.44
2023-03-25T03:55:44.853Z,10.41
2023-03-25T03:58:29.987Z,10.35
2023-03-25T04:01:30.265Z,10.31
2023-03-25T04:04:04.397Z,10.26
2023-03-25T04:07:04.559Z,10.24
2023-03-25T04:09:44.811Z,10.20
2023-03-25T04:12:33.116Z,10.19
2023-03-25T04:15:04.012Z,10.18
2023-03-25T04:17:35.312Z,10.16
2023-03-25T04:20:08.764Z,10.16
2023-03-25T04:22:46.027Z,10.16
2023-03-25T04:25:14.357Z,10.15
2023-03-25T04:27:49.178Z,10.13
2023-03-25T04:30:21.638Z,10.12
2023-03-25T04:32:51.637Z,10.11
2023-03-25T04:35:21.387Z,10.10
2023-03-25T04:37:49.577Z,10.10
2023-03-25T04:40:21.081Z,10.10
2023-03-25T04:42:49.740Z,10.10
2023-03-25T04:45:17.908Z,10.09
2023-03-25T04:47:49.121Z,10.08
2023-03-25T04:50:24.602Z,10.08
2023-03-25T04:52:54.105Z,10.04
2023-03-25T04:55:22.343Z,10.01
2023-03-25T04:57:52.059Z,9.97
2023-03-25T05:00:24.657Z,9.96
2023-03-25T05:02:55.808Z,9.92
2023-03-25T05:05:26.010Z,9.88
2023-03-25T05:07:58.170Z,9.89
2023-03-25T05:10:30.783Z,9.92
2023-03-25T05:13:01.567Z,9.95
2023-03-25T05:15:32.663Z,9.97
2023-03-25T05:18:02.529Z,10.01
2023-03-25T05:20:33.042Z,10.04
2023-03-25T05:23:01.249Z,10.07
2023-03-25T05:25:34.042Z,10.12
2023-03-25T05:28:05.938Z,10.18
2023-03-25T05:30:39.123Z,10.23
2023-03-25T05:33:10.985Z,10.33
2023-03-25T05:35:39.958Z,10.42
2023-03-25T05:38:08.958Z,10.53
2023-03-25T05:40:37.876Z,10.67
2023-03-25T05:43:07.512Z,10.77
2023-03-25T05:45:36.234Z,10.84
2023-03-25T05:48:05.134Z,10.93
2023-03-25T05:50:33.500Z,11.03
2023-03-25T05:53:01.878Z,11.14
2023-03-25T05:55:30.155Z,11.24
2023-03-25T05:57:58.828Z,11.40
2023-03-25T06:00:27.258Z,11.56
2023-03-25T06:02:55.624Z,11.78
2023-03-25T06:05:24.018Z,11.97
2023-03-25T06:07:56.454Z,12.10
2023-03-25T06:10:25.134Z,12.21
2023-03-25T06:12:54.159Z,12.26
2023-03-25T06:15:29.627Z,12.30
2023-03-25T06:17:58.017Z,12.31
2023-03-25T06:20:26.836Z,12.29
2023-03-25T06:22:55.475Z,12.26
2023-03-25T06:25:24.428Z,12.24
2023-03-25T06:27:52.776Z,12.21
2023-03-25T06:30:21.894Z,12.19
2023-03-25T06:32:50.913Z,12.17
2023-03-25T06:35:20.513Z,12.14
2023-03-25T06:37:49.777Z,12.11
2023-03-25T06:40:28.090Z,12.09
2023-03-25T06:42:56.918Z,12.07
2023-03-25T06:46:11.790Z,12.03
2023-03-25T06:48:58.374Z,12.01
2023-03-25T06:51:27.275Z,12.00
2023-03-25T06:53:55.508Z,11.99
2023-03-25T06:56:26.614Z,11.97
2023-03-25T06:58:54.823Z,11.95
2023-03-25T07:01:23.146Z,11.94
2023-03-25T07:03:51.484Z,11.93
2023-03-25T07:06:22.583Z,11.90
2023-03-25T07:08:51.360Z,11.87
2023-03-25T07:11:27.136Z,11.87
2023-03-25T07:13:55.695Z,11.86
2023-03-25T07:16:25.869Z,11.85
2023-03-25T07:18:57.366Z,11.86
2023-03-25T07:21:26.407Z,11.87
2023-03-25T07:23:56.004Z,11.88
2023-03-25T07:26:24.384Z,11.88
2023-03-25T07:28:53.721Z,11.89
2023-03-25T07:31:22.027Z,11.89
2023-03-25T07:33:51.490Z,11.89
2023-03-25T07:36:21.961Z,11.90
2023-03-25T07:38:50.258Z,11.90
2023-03-25T07:41:18.496Z,11.92
2023-03-25T07:44:05.209Z,11.92
2023-03-25T07:46:33.948Z,11.93
2023-03-25T07:49:02.339Z,11.94
2023-03-25T07:51:30.699Z,11.95
2023-03-25T07:54:05.104Z,11.97
2023-03-25T07:56:34.430Z,12.01
2023-03-25T07:59:03.598Z,12.04
2023-03-25T08:01:31.899Z,12.06
2023-03-25T08:04:00.981Z,12.07
2023-03-25T08:06:29.454Z,12.11
2023-03-25T08:08:57.737Z,12.14
2023-03-25T08:11:25.934Z,12.19
2023-03-25T08:13:54.105Z,12.22
2023-03-25T08:16:22.318Z,12.25
2023-03-25T08:18:52.966Z,12.26
2023-03-25T08:21:28.017Z,12.27
2023-03-25T08:24:02.338Z,12.28
2023-03-25T08:26:34.875Z,12.27
2023-03-25T08:29:04.043Z,12.27
2023-03-25T08:31:33.287Z,12.28
2023-03-25T08:34:03.167Z,12.31
2023-03-25T08:36:31.646Z,12.34
2023-03-25T08:38:59.815Z,12.39
2023-03-25T08:41:28.180Z,12.45
2023-03-25T08:43:56.417Z,12.50
2023-03-25T08:46:24.646Z,12.56
2023-03-25T08:48:53.649Z,12.62
2023-03-25T08:51:22.473Z,12.69
2023-03-25T08:53:50.776Z,12.76
2023-03-25T08:56:18.976Z,12.81
2023-03-25T08:58:47.204Z,12.86
2023-03-25T09:01:15.478Z,12.89
2023-03-25T09:03:43.820Z,12.92
2023-03-25T09:06:12.041Z,12.96
2023-03-25T09:08:40.400Z,12.98
2023-03-25T09:11:08.750Z,12.99
2023-03-25T09:13:36.967Z,13.00
2023-03-25T09:16:05.843Z,13.03
2023-03-25T09:18:36.651Z,13.04
2023-03-25T09:21:05.290Z,13.08
2023-03-25T09:23:33.953Z,13.10
2023-03-25T09:26:06.605Z,13.12
2023-03-25T09:28:34.882Z,13.12
2023-03-25T09:31:03.169Z,13.13
2023-03-25T09:33:31.979Z,13.13
2023-03-25T09:36:00.297Z,13.13
2023-03-25T09:38:28.529Z,13.11
2023-03-25T09:40:57.097Z,13.09
2023-03-25T09:43:58.445Z,13.09
2023-03-25T09:46:27.768Z,13.11
2023-03-25T09:48:57.291Z,13.10
2023-03-25T09:51:32.311Z,13.10
2023-03-25T09:54:25.378Z,13.10
2023-03-25T09:56:59.130Z,13.11
2023-03-25T09:59:49.270Z,13.13
2023-03-25T10:02:52.372Z,13.15
2023-03-25T10:06:05.738Z,13.17
2023-03-25T10:09:07.742Z,13.20
2023-03-25T10:12:01.552Z,13.24
2023-03-25T10:15:17.621Z,13.27
2023-03-25T10:18:05.973Z,13.31
2023-03-25T10:20:47.106Z,13.36
2023-03-25T10:23:26.804Z,13.43
2023-03-25T10:26:19.010Z,13.47
2023-03-25T10:29:01.489Z,13.52
2023-03-25T10:31:35.393Z,13.59
2023-03-25T10:34:35.030Z,13.68
2023-03-25T10:37:12.451Z,13.76
2023-03-25T10:39:45.567Z,13.80
2023-03-25T10:42:27.220Z,13.83
2023-03-25T10:44:55.537Z,13.84
2023-03-25T10:47:31.895Z,13.86
2023-03-25T10:50:00.558Z,13.89
2023-03-25T10:52:28.765Z,13.93
2023-03-25T10:54:58.543Z,13.96
2023-03-25T10:57:30.155Z,14.01
2023-03-25T11:00:19.549Z,14.06
2023-03-25T11:02:48.291Z,14.09
2023-03-25T11:05:21.374Z,14.10
2023-03-25T11:07:58.742Z,14.09
2023-03-25T11:10:34.349Z,14.07
2023-03-25T11:13:07.728Z,14.07
2023-03-25T11:15:38.740Z,14.08
2023-03-25T11:18:29.841Z,14.12
2023-03-25T11:21:04.826Z,14.15
2023-03-25T11:23:51.648Z,14.16
2023-03-25T11:26:27.441Z,14.17
2023-03-25T11:29:02.415Z,14.16
2023-03-25T11:31:36.895Z,14.15
2023-03-25T11:34:11.553Z,14.15
2023-03-25T11:37:20.869Z,14.18
2023-03-25T11:39:56.531Z,14.23
2023-03-25T11:42:43.793Z,14.28
2023-03-25T11:45:26.562Z,14.31
2023-03-25T11:48:01.493Z,14.35
2023-03-25T11:50:30.690Z,14.42
2023-03-25T11:53:04.464Z,14.50
2023-03-25T11:55:45.775Z,14.56
2023-03-25T11:58:19.030Z,14.61
2023-03-25T12:00:59.946Z,14.65
2023-03-25T12:03:30.599Z,14.71
2023-03-25T12:06:16.592Z,14.76
2023-03-25T12:09:13.008Z,14.80
2023-03-25T12:12:27.087Z,14.87
2023-03-25T12:15:16.535Z,14.96
2023-03-25T12:18:09.496Z,15.04
2023-03-25T12:21:09.887Z,15.09
2023-03-25T12:24:07.485Z,15.14
2023-03-25T12:27:18.930Z,15.17
2023-03-25T12:30:07.900Z,15.19
2023-03-25T12:32:42.317Z,15.21
2023-03-25T12:35:42.271Z,15.21
2023-03-25T12:38:57.820Z,15.18
2023-03-25T12:41:41.108Z,15.19
2023-03-25T12:44:50.760Z,15.19
2023-03-25T12:47:37.170Z,15.13
2023-03-25T12:50:33.753Z,15.03
2023-03-25T12:53:34.175Z,14.90
2023-03-25T12:56:27.012Z,14.78
2023-03-25T12:59:29.144Z,14.72
2023-03-25T13:02:46.439Z,14.70
2023-03-25T13:05:26.199Z,14.76
2023-03-25T13:08:03.284Z,14.82
2023-03-25T13:10:36.576Z,14.86
2023-03-25T13:13:15.139Z,14.88
2023-03-25T13:16:03.070Z,14.82
2023-03-25T13:18:39.104Z,14.79
2023-03-25T13:21:17.769Z,14.77
2023-03-25T13:23:52.744Z,14.77
2023-03-25T13:26:29.374Z,14.77
2023-03-25T13:29:03.753Z,14.72
2023-03-25T13:31:41.180Z,14.65
2023-03-25T13:34:41.546Z,14.59
2023-03-25T13:37:31.984Z,14.61
2023-03-25T13:40:43.653Z,14.65
2023-03-25T13:43:37.848Z,14.69
2023-03-25T13:46:34.656Z,14.79
2023-03-25T13:49:33.146Z,14.88
2023-03-25T13:52:01.902Z,15.05
2023-03-25T13:54:49.258Z,15.18
2023-03-25T13:58:04.188Z,15.25
2023-03-25T14:00:58.727Z,15.28
2023-03-25T14:03:33.002Z,15.32
2023-03-25T14:06:44.515Z,15.33
2023-03-25T14:09:55.642Z,15.29
2023-03-25T14:12:39.069Z,15.26
2023-03-25T14:15:36.033Z,15.23
2023-03-25T14:18:06.030Z,15.20
2023-03-25T14:20:41.747Z,15.18
2023-03-25T14:23:18.662Z,15.10
2023-03-25T14:25:54.301Z,15.04
2023-03-25T14:28:43.908Z,14.96
2023-03-25T14:31:12.180Z,14.91
2023-03-25T14:34:04.935Z,14.85
2023-03-25T14:37:05.692Z,14.82
2023-03-25T14:39:33.943Z,14.82
2023-03-25T14:42:08.171Z,14.82
2023-03-25T14:44:41.438Z,14.80
2023-03-25T14:47:22.181Z,14.80
2023-03-25T14:50:20.726Z,14.80
2023-03-25T14:52:57.246Z,14.78
2023-03-25T14:55:41.589Z,14.76
2023-03-25T14:58:26.229Z,14.70
2023-03-25T15:00:55.417Z,14.64
2023-03-25T15:03:35.989Z,14.59
2023-03-25T15:06:06.859Z,14.57
2023-03-25T15:08:41.924Z,14.58
2023-03-25T15:11:18.467Z,14.61
2023-03-25T15:13:52.934Z,14.62
2023-03-25T15:16:57.091Z,14.63
2023-03-25T15:19:25.316Z,14.64
2023-03-25T15:22:02.943Z,14.63
2023-03-25T15:24:36.770Z,14.62
2023-03-25T15:27:08.805Z,14.62
2023-03-25T15:29:58.484Z,14.65
2023-03-25T15:32:38.833Z,14.66
2023-03-25T15:35:34.930Z,14.66
2023-03-25T15:38:57.991Z,14.68
2023-03-25T15:41:56.904Z,14.66
2023-03-25T15:44:53.206Z,14.64
2023-03-25T15:48:22.717Z,14.61
2023-03-25T15:51:18.658Z,14.58
2023-03-25T15:53:56.265Z,14.53
2023-03-25T15:56:39.438Z,14.47
2023-03-25T15:59:51.609Z,14.41
2023-03-25T16:02:49.635Z,14.32
2023-03-25T16:05:20.081Z,14.22
2023-03-25T16:07:49.590Z,14.16
2023-03-25T16:10:31.042Z,14.10
2023-03-25T16:13:06.537Z,14.05
2023-03-25T16:15:36.996Z,14.00
2023-03-25T16:18:09.132Z,13.95
2023-03-25T16:20:37.873Z,13.89
2023-03-25T16:23:07.831Z,13.82
2023-03-25T16:25:41.546Z,13.77
2023-03-25T16:28:21.329Z,13.74
2023-03-25T16:30:53.654Z,13.70
2023-03-25T16:33:32.138Z,13.64
2023-03-25T16:36:04.532Z,13.58
2023-03-25T16:38:33.405Z,13.53
2023-03-25T16:41:12.476Z,13.47
2023-03-25T16:43:41.669Z,13.43
2023-03-25T16:46:13.006Z,13.40
2023-03-25T16:48:48.024Z,13.39
2023-03-25T16:51:35.257Z,13.36
2023-03-25T16:54:11.500Z,13.34
2023-03-25T16:56:39.999Z,13.32
2023-03-25T16:59:21.413Z,13.30
2023-03-25T17:01:56.427Z,13.29
2023-03-25T17:04:42.028Z,13.26
2023-03-25T17:07:21.017Z,13.25
2023-03-25T17:09:55.761Z,13.22
2023-03-25T17:12:26.519Z,13.21
2023-03-25T17:15:06.995Z,13.19
2023-03-25T17:17:47.223Z,13.19
2023-03-25T17:20:39.444Z,13.17
2023-03-25T17:23:19.151Z,13.14
2023-03-25T17:26:03.996Z,13.09
2023-03-25T17:28:43.895Z,13.07
2023-03-25T17:31:36.432Z,13.03
2023-03-25T17:34:13.712Z,13.01
2023-03-25T17:36:45.813Z,12.98
2023-03-25T17:39:29.713Z,12.95
2023-03-25T17:42:08.360Z,12.92
2023-03-25T17:44:45.333Z,12.87
2023-03-25T17:47:17.049Z,12.83
2023-03-25T17:49:45.509Z,12.79
2023-03-25T17:52:13.702Z,12.76
2023-03-25T17:54:41.865Z,12.72
2023-03-25T17:57:17.919Z,12.69
2023-03-25T17:59:47.227Z,12.65
2023-03-25T18:02:17.337Z,12.61
2023-03-25T18:04:45.897Z,12.60
2023-03-25T18:07:14.276Z,12.59
2023-03-25T18:09:42.517Z,12.57
2023-03-25T18:12:11.161Z,12.56
2023-03-25T18:14:39.648Z,12.53
2023-03-25T18:17:12.741Z,12.49
2023-03-25T18:19:41.960Z,12.47
2023-03-25T18:22:19.709Z,12.41
2023-03-25T18:24:48.485Z,12.38
2023-03-25T18:27:16.676Z,12.35
2023-03-25T18:29:44.913Z,12.33
2023-03-25T18:32:13.060Z,12.30
2023-03-25T18:34:41.353Z,12.28
2023-03-25T18:37:11.782Z,12.26
2023-03-25T18:39:40.272Z,12.22
2023-03-25T18:42:08.425Z,12.17
2023-03-25T18:44:36.681Z,12.14
2023-03-25T18:47:04.891Z,12.12
2023-03-25T18:49:33.106Z,12.11
2023-03-25T18:52:02.544Z,12.10
2023-03-25T18:54:30.741Z,12.08
2023-03-25T18:56:58.965Z,12.04
2023-03-25T18:59:27.327Z,12.00
2023-03-25T19:01:56.065Z,11.97
2023-03-25T19:04:24.303Z,11.92
2023-03-25T19:06:53.511Z,11.89
2023-03-25T19:09:23.616Z,11.89
2023-03-25T19:11:51.869Z,11.87
2023-03-25T19:14:20.056Z,11.82
2023-03-25T19:16:57.260Z,11.81
2023-03-25T19:19:29.869Z,11.81
2023-03-25T19:21:59.512Z,11.79
2023-03-25T19:24:27.707Z,11.78
2023-03-25T19:26:56.994Z,11.77
2023-03-25T19:29:25.557Z,11.76
2023-03-25T19:31:53.740Z,11.72
2023-03-25T19:34:22.187Z,11.68
2023-03-25T19:36:53.504Z,11.63
2023-03-25T19:39:23.048Z,11.61
2023-03-25T19:41:52.856Z,11.59
2023-03-25T19:44:21.133Z,11.59
2023-03-25T19:46:49.786Z,11.60
2023-03-25T19:49:26.066Z,11.60
2023-03-25T19:52:06.842Z,11.59
2023-03-25T19:54:35.015Z,11.59
2023-03-25T19:57:03.339Z,11.58
2023-03-25T19:59:33.167Z,11.56
2023-03-25T20:02:01.724Z,11.62
2023-03-25T20:04:30.428Z,11.71
2023-03-25T20:06:58.579Z,11.78
2023-03-25T20:09:30.104Z,11.85
2023-03-25T20:11:58.283Z,11.91
2023-03-25T20:14:26.430Z,11.94
2023-03-25T20:16:55.572Z,12.00
2023-03-25T20:19:24.412Z,12.05
2023-03-25T20:21:53.067Z,12.10
2023-03-25T20:24:21.445Z,12.16
2023-03-25T20:26:49.686Z,12.21
2023-03-25T20:29:19.922Z,12.23
2023-03-25T20:31:48.334Z,12.26
2023-03-25T20:34:16.754Z,12.31
2023-03-25T20:36:46.643Z,12.33
2023-03-25T20:39:14.805Z,12.35
2023-03-25T20:41:43.504Z,12.36
2023-03-25T20:44:13.490Z,12.39
2023-03-25T20:46:44.066Z,12.41
2023-03-25T20:49:19.052Z,12.42
2023-03-25T20:51:47.951Z,12.45
2023-03-25T20:54:16.136Z,12.45
2023-03-25T20:56:46.346Z,12.46
2023-03-25T20:59:16.774Z,12.46
2023-03-25T21:01:50.795Z,12.47
2023-03-25T21:04:23.414Z,12.48
2023-03-25T21:06:51.978Z,12.49
2023-03-25T21:09:21.447Z,12.47
2023-03-25T21:11:49.620Z,12.48
2023-03-25T21:14:19.120Z,12.51
2023-03-25T21:16:47.774Z,12.51
2023-03-25T21:19:16.554Z,12.51
2023-03-25T21:21:44.741Z,12.50
2023-03-25T21:24:14.690Z,12.49
2023-03-25T21:26:43.196Z,12.48
2023-03-25T21:29:11.348Z,12.49
2023-03-25T21:31:39.695Z,12.52
2023-03-25T21:34:08.525Z,12.52
2023-03-25T21:36:36.895Z,12.52
2023-03-25T21:39:06.867Z,12.51
2023-03-25T21:41:36.375Z,12.49
2023-03-25T21:44:05.871Z,12.49
2023-03-25T21:46:36.746Z,12.50
2023-03-25T21:49:04.955Z,12.53
2023-03-25T21:51:36.023Z,12.55
2023-03-25T21:54:04.400Z,12.50
2023-03-25T21:56:34.839Z,12.45
2023-03-25T21:59:04.664Z,12.37
2023-03-25T22:01:33.424Z,12.29
2023-03-25T22:04:02.936Z,12.24
2023-03-25T22:06:33.456Z,12.18
2023-03-25T22:09:06.195Z,12.14
2023-03-25T22:11:37.526Z,12.09
2023-03-25T22:14:06.278Z,12.05
2023-03-25T22:16:35.311Z,12.03
2023-03-25T22:19:05.248Z,11.98
2023-03-25T22:21:37.039Z,11.95
2023-03-25T22:24:08.680Z,11.94
2023-03-25T22:26:42.365Z,11.92
2023-03-25T22:29:11.570Z,11.89
2023-03-25T22:31:40.403Z,11.83
2023-03-25T22:34:15.287Z,11.77
2023-03-25T22:36:50.531Z,11.70
2023-03-25T22:39:20.832Z,11.63
2023-03-25T22:41:49.190Z,11.56
2023-03-25T22:44:19.038Z,11.51
2023-03-25T22:46:50.137Z,11.45
2023-03-25T22:49:19.123Z,11.38
2023-03-25T22:51:47.519Z,11.31
2023-03-25T22:54:16.241Z,11.25
2023-03-25T22:56:46.087Z,11.20
2023-03-25T22:59:15.463Z,11.16
2023-03-25T23:01:43.783Z,11.10
2023-03-25T23:04:12.556Z,11.05
2023-03-25T23:06:41.905Z,11.03
2023-03-25T23:09:10.671Z,10.99
2023-03-25T23:11:39.200Z,10.97
2023-03-25T23:14:13.036Z,10.94
2023-03-25T23:16:41.954Z,10.90
2023-03-25T23:19:10.607Z,10.87
2023-03-25T23:21:38.856Z,10.83
2023-03-25T23:24:08.044Z,10.81
2023-03-25T23:26:40.410Z,10.79
2023-03-25T23:29:11.690Z,10.77
2023-03-25T23:31:43.407Z,10.76
2023-03-25T23:34:16.024Z,10.74
2023-03-25T23:36:46.180Z,10.70
2023-03-25T23:39:17.681Z,10.68
2023-03-25T23:41:45.981Z,10.66
2023-03-25T23:44:14.232Z,10.64
2023-03-25T23:46:43.479Z,10.61
2023-03-25T23:49:11.724Z,10.58
2023-03-25T23:51:41.605Z,10.56
2023-03-25T23:54:12.709Z,10.54
2023-03-25T23:56:42.225Z,10.51
2023-03-25T23:59:12.104Z,10.51
